DLH64E EHBK-EGLL
Flight info
| Callsign | DLH64E |
|---|---|
| Flight time | 0h 51m |
| Altitude | 30000 |
| Route | PESER4B PESER DCT TANET TANET1Z |
| Aircraft | B77L/H-SDE1E2E3FGHIJ2J3J4J5M1RWXY/LB1D1 |
Departure
| Time | 2026-05-03 20:15 |
|---|---|
| Airport | Maastricht Aachen Airport (EHBK) |
Arrival
| Time | 2026-05-03 21:06 |
|---|---|
| Airport | London Heathrow Airport (EGLL) |
| Time | Latitude | Longitude | Altitude | Speed | Heading |
|---|---|---|---|---|---|
| 2026-05-03 20:15 | 50.91432 | 5.77269 | 386 ft | 111 kts | 212° |
| 2026-05-03 20:15 | 50.90607 | 5.76437 | 397 ft | 165 kts | 212° |
| 2026-05-03 20:15 | 50.89637 | 5.75437 | 1005 ft | 160 kts | 213° |
| 2026-05-03 20:15 | 50.88740 | 5.74514 | 1894 ft | 147 kts | 213° |
| 2026-05-03 20:16 | 50.87782 | 5.73967 | 2479 ft | 157 kts | 188° |
| 2026-05-03 20:16 | 50.86595 | 5.74300 | 2732 ft | 190 kts | 163° |
| 2026-05-03 20:16 | 50.85401 | 5.75574 | 2945 ft | 227 kts | 138° |
| 2026-05-03 20:16 | 50.84601 | 5.77942 | 3178 ft | 266 kts | 102° |
| 2026-05-03 20:17 | 50.84849 | 5.80893 | 3833 ft | 281 kts | 63° |
| 2026-05-03 20:17 | 50.86133 | 5.83196 | 4627 ft | 282 kts | 31° |
| 2026-05-03 20:17 | 50.87846 | 5.84719 | 5319 ft | 286 kts | 27° |
| 2026-05-03 20:17 | 50.89568 | 5.86411 | 6114 ft | 293 kts | 33° |
| 2026-05-03 20:18 | 50.91214 | 5.88306 | 6960 ft | 295 kts | 37° |
| 2026-05-03 20:18 | 50.92833 | 5.90331 | 7803 ft | 297 kts | 38° |
| 2026-05-03 20:18 | 50.94441 | 5.92400 | 8643 ft | 299 kts | 39° |
| 2026-05-03 20:18 | 50.96077 | 5.94390 | 9399 ft | 301 kts | 29° |
| 2026-05-03 20:19 | 50.98056 | 5.95523 | 10041 ft | 305 kts | 8° |
| 2026-05-03 20:19 | 51.00199 | 5.95704 | 10497 ft | 317 kts | 353° |
| 2026-05-03 20:19 | 51.02469 | 5.95263 | 10689 ft | 341 kts | 348° |
| 2026-05-03 20:19 | 51.04895 | 5.94629 | 10907 ft | 364 kts | 348° |
| 2026-05-03 20:20 | 51.07439 | 5.93979 | 11507 ft | 375 kts | 348° |
| 2026-05-03 20:20 | 51.10048 | 5.93362 | 12267 ft | 381 kts | 349° |
| 2026-05-03 20:20 | 51.12690 | 5.92780 | 13131 ft | 384 kts | 349° |
| 2026-05-03 20:20 | 51.15353 | 5.92215 | 13989 ft | 387 kts | 349° |
| 2026-05-03 20:21 | 51.18039 | 5.91649 | 14694 ft | 392 kts | 349° |
| 2026-05-03 20:21 | 51.20738 | 5.91079 | 15384 ft | 398 kts | 349° |
| 2026-05-03 20:21 | 51.23429 | 5.90194 | 15889 ft | 395 kts | 335° |
| 2026-05-03 20:21 | 51.25763 | 5.87899 | 16481 ft | 394 kts | 314° |
| 2026-05-03 20:22 | 51.27528 | 5.84609 | 17197 ft | 389 kts | 301° |
| 2026-05-03 20:22 | 51.29062 | 5.81023 | 17843 ft | 394 kts | 300° |
| 2026-05-03 20:22 | 51.30604 | 5.77368 | 18494 ft | 398 kts | 300° |
| 2026-05-03 20:22 | 51.32161 | 5.73683 | 19145 ft | 402 kts | 300° |
| 2026-05-03 20:23 | 51.33739 | 5.69969 | 19808 ft | 405 kts | 300° |
| 2026-05-03 20:23 | 51.35335 | 5.66233 | 20447 ft | 409 kts | 301° |
| 2026-05-03 20:23 | 51.36951 | 5.62461 | 21077 ft | 413 kts | 301° |
| 2026-05-03 20:23 | 51.38585 | 5.58655 | 21701 ft | 417 kts | 301° |
| 2026-05-03 20:24 | 51.40234 | 5.54812 | 22328 ft | 421 kts | 300° |
| 2026-05-03 20:24 | 51.41898 | 5.50928 | 22948 ft | 425 kts | 300° |
| 2026-05-03 20:24 | 51.43579 | 5.47002 | 23533 ft | 429 kts | 300° |
| 2026-05-03 20:24 | 51.45270 | 5.43045 | 24083 ft | 432 kts | 300° |
| 2026-05-03 20:25 | 51.46881 | 5.38990 | 24650 ft | 429 kts | 292° |
| 2026-05-03 20:25 | 51.47848 | 5.34525 | 25023 ft | 424 kts | 280° |
| 2026-05-03 20:25 | 51.48559 | 5.29895 | 25430 ft | 430 kts | 280° |
| 2026-05-03 20:25 | 51.49297 | 5.25223 | 25967 ft | 434 kts | 280° |
| 2026-05-03 20:26 | 51.50066 | 5.20529 | 26534 ft | 436 kts | 281° |
| 2026-05-03 20:26 | 51.50857 | 5.15816 | 27157 ft | 437 kts | 281° |
| 2026-05-03 20:26 | 51.51657 | 5.11118 | 27909 ft | 435 kts | 281° |
| 2026-05-03 20:26 | 51.52446 | 5.06505 | 28695 ft | 433 kts | 280° |
| 2026-05-03 20:27 | 51.53240 | 5.01851 | 29486 ft | 431 kts | 280° |
| 2026-05-03 20:27 | 51.54029 | 4.97195 | 29982 ft | 435 kts | 279° |
| 2026-05-03 20:27 | 51.54823 | 4.92500 | 29937 ft | 435 kts | 280° |
| 2026-05-03 20:28 | 51.56393 | 4.83192 | 29929 ft | 428 kts | 279° |
| 2026-05-03 20:28 | 51.57950 | 4.73945 | 29947 ft | 429 kts | 279° |
| 2026-05-03 20:29 | 51.59504 | 4.64679 | 29938 ft | 429 kts | 279° |
| 2026-05-03 20:29 | 51.61052 | 4.55402 | 29937 ft | 429 kts | 279° |
| 2026-05-03 20:29 | 51.61590 | 4.50726 | 29921 ft | 421 kts | 267° |
| 2026-05-03 20:30 | 51.61511 | 4.46080 | 29941 ft | 415 kts | 262° |
| 2026-05-03 20:30 | 51.61109 | 4.36866 | 29934 ft | 416 kts | 261° |
| 2026-05-03 20:31 | 51.60726 | 4.27555 | 29941 ft | 418 kts | 262° |
| 2026-05-03 20:31 | 51.60387 | 4.18207 | 29935 ft | 419 kts | 262° |
| 2026-05-03 20:32 | 51.60119 | 4.10419 | 29931 ft | 419 kts | 262° |
| 2026-05-03 20:32 | 51.59795 | 4.01051 | 29927 ft | 419 kts | 262° |
| 2026-05-03 20:33 | 51.59465 | 3.91686 | 29914 ft | 419 kts | 262° |
| 2026-05-03 20:33 | 51.59127 | 3.82348 | 29925 ft | 418 kts | 262° |
| 2026-05-03 20:34 | 51.58780 | 3.73002 | 29915 ft | 418 kts | 262° |
| 2026-05-03 20:34 | 51.58429 | 3.63719 | 29916 ft | 418 kts | 262° |
| 2026-05-03 20:35 | 51.58068 | 3.54393 | 29910 ft | 418 kts | 262° |
| 2026-05-03 20:35 | 51.57700 | 3.45064 | 29915 ft | 418 kts | 261° |
| 2026-05-03 20:36 | 51.57324 | 3.35729 | 29937 ft | 418 kts | 261° |
| 2026-05-03 20:36 | 51.56941 | 3.26390 | 29916 ft | 419 kts | 261° |
| 2026-05-03 20:37 | 51.56549 | 3.17048 | 29914 ft | 419 kts | 261° |
| 2026-05-03 20:37 | 51.56150 | 3.07692 | 29917 ft | 419 kts | 261° |
| 2026-05-03 20:38 | 51.55744 | 2.98340 | 29917 ft | 419 kts | 261° |
| 2026-05-03 20:38 | 51.55330 | 2.88990 | 29917 ft | 419 kts | 261° |
| 2026-05-03 20:39 | 51.54908 | 2.79633 | 29925 ft | 420 kts | 261° |
| 2026-05-03 20:39 | 51.54481 | 2.70334 | 29916 ft | 420 kts | 260° |
| 2026-05-03 20:40 | 51.54045 | 2.60976 | 29916 ft | 420 kts | 260° |
| 2026-05-03 20:40 | 51.53601 | 2.51620 | 29916 ft | 420 kts | 260° |
| 2026-05-03 20:41 | 51.53149 | 2.42264 | 29914 ft | 420 kts | 260° |
| 2026-05-03 20:41 | 51.52697 | 2.33000 | 29897 ft | 405 kts | 260° |
| 2026-05-03 20:42 | 51.52858 | 2.23854 | 29928 ft | 433 kts | 277° |
| 2026-05-03 20:42 | 51.53805 | 2.19155 | 29930 ft | 449 kts | 287° |
| 2026-05-03 20:42 | 51.54550 | 2.16599 | 29922 ft | 448 kts | 292° |
| 2026-05-03 20:42 | 51.56088 | 2.12363 | 29920 ft | 434 kts | 295° |
| 2026-05-03 20:43 | 51.57628 | 2.08282 | 29886 ft | 419 kts | 295° |
| 2026-05-03 20:43 | 51.59117 | 2.04326 | 29579 ft | 411 kts | 295° |
| 2026-05-03 20:43 | 51.60574 | 2.00402 | 29161 ft | 406 kts | 294° |
| 2026-05-03 20:43 | 51.62004 | 1.96509 | 28752 ft | 401 kts | 294° |
| 2026-05-03 20:44 | 51.63389 | 1.92708 | 28372 ft | 397 kts | 295° |
| 2026-05-03 20:44 | 51.64778 | 1.88882 | 27910 ft | 394 kts | 295° |
| 2026-05-03 20:44 | 51.66152 | 1.85083 | 27486 ft | 391 kts | 295° |
| 2026-05-03 20:44 | 51.67516 | 1.81309 | 27057 ft | 388 kts | 295° |
| 2026-05-03 20:45 | 51.68872 | 1.77550 | 26593 ft | 390 kts | 295° |
| 2026-05-03 20:45 | 51.70239 | 1.73752 | 26190 ft | 394 kts | 295° |
| 2026-05-03 20:45 | 51.71621 | 1.69918 | 25775 ft | 395 kts | 295° |
| 2026-05-03 20:45 | 51.72998 | 1.66092 | 25321 ft | 393 kts | 296° |
| 2026-05-03 20:46 | 51.74213 | 1.62213 | 24825 ft | 383 kts | 283° |
| 2026-05-03 20:46 | 51.74615 | 1.58040 | 24325 ft | 373 kts | 265° |
| 2026-05-03 20:46 | 51.74383 | 1.53919 | 23917 ft | 367 kts | 261° |
| 2026-05-03 20:46 | 51.74096 | 1.49836 | 23500 ft | 365 kts | 261° |
| 2026-05-03 20:47 | 51.73811 | 1.45780 | 23027 ft | 363 kts | 261° |
| 2026-05-03 20:47 | 51.73532 | 1.41739 | 22616 ft | 360 kts | 261° |
| 2026-05-03 20:47 | 51.73261 | 1.37736 | 22190 ft | 358 kts | 261° |
| 2026-05-03 20:47 | 51.72994 | 1.33757 | 21737 ft | 356 kts | 261° |
| 2026-05-03 20:48 | 51.72731 | 1.29793 | 21291 ft | 354 kts | 261° |
| 2026-05-03 20:48 | 51.72471 | 1.25871 | 20792 ft | 345 kts | 261° |
| 2026-05-03 20:48 | 51.72219 | 1.22061 | 19843 ft | 339 kts | 261° |
| 2026-05-03 20:48 | 51.71966 | 1.18283 | 18775 ft | 339 kts | 261° |
| 2026-05-03 20:49 | 51.71709 | 1.14476 | 17719 ft | 348 kts | 262° |
| 2026-05-03 20:49 | 51.71447 | 1.10598 | 17287 ft | 345 kts | 262° |
| 2026-05-03 20:49 | 51.71191 | 1.06786 | 17026 ft | 338 kts | 262° |
| 2026-05-03 20:49 | 51.70939 | 1.03059 | 16722 ft | 332 kts | 262° |
| 2026-05-03 20:50 | 51.70688 | 0.99380 | 16310 ft | 329 kts | 262° |
| 2026-05-03 20:50 | 51.70513 | 0.96842 | 16029 ft | 328 kts | 262° |
| 2026-05-03 20:50 | 51.70460 | 0.96079 | 15997 ft | 327 kts | 262° |
| 2026-05-03 20:50 | 51.70205 | 0.92393 | 15922 ft | 334 kts | 262° |
| 2026-05-03 20:51 | 51.69946 | 0.88669 | 15913 ft | 334 kts | 262° |
| 2026-05-03 20:51 | 51.69691 | 0.85009 | 15902 ft | 332 kts | 262° |
| 2026-05-03 20:51 | 51.69434 | 0.81337 | 15886 ft | 326 kts | 262° |
| 2026-05-03 20:51 | 51.69186 | 0.77779 | 15346 ft | 314 kts | 262° |
| 2026-05-03 20:52 | 51.68943 | 0.74331 | 14599 ft | 306 kts | 262° |
| 2026-05-03 20:52 | 51.68701 | 0.70929 | 13667 ft | 305 kts | 262° |
| 2026-05-03 20:52 | 51.68458 | 0.67527 | 12585 ft | 305 kts | 262° |
| 2026-05-03 20:52 | 51.68210 | 0.64083 | 11753 ft | 314 kts | 262° |
| 2026-05-03 20:53 | 51.67959 | 0.60583 | 11296 ft | 313 kts | 262° |
| 2026-05-03 20:53 | 51.67710 | 0.57114 | 10932 ft | 310 kts | 262° |
| 2026-05-03 20:53 | 51.67462 | 0.53679 | 10536 ft | 308 kts | 262° |
| 2026-05-03 20:53 | 51.67213 | 0.50260 | 10116 ft | 307 kts | 262° |
| 2026-05-03 20:54 | 51.66964 | 0.46852 | 9700 ft | 306 kts | 262° |
| 2026-05-03 20:54 | 51.66469 | 0.40134 | 8932 ft | 301 kts | 262° |
| 2026-05-03 20:54 | 51.66227 | 0.36850 | 8873 ft | 290 kts | 262° |
| 2026-05-03 20:55 | 51.65992 | 0.33682 | 8756 ft | 279 kts | 262° |
| 2026-05-03 20:55 | 51.65765 | 0.30625 | 8548 ft | 271 kts | 262° |
| 2026-05-03 20:55 | 51.65543 | 0.27640 | 8252 ft | 266 kts | 262° |
| 2026-05-03 20:55 | 51.65323 | 0.24702 | 7928 ft | 262 kts | 262° |
| 2026-05-03 20:56 | 51.65104 | 0.21796 | 7616 ft | 262 kts | 262° |
| 2026-05-03 20:56 | 51.64884 | 0.18890 | 7362 ft | 260 kts | 262° |
| 2026-05-03 20:56 | 51.64638 | 0.16036 | 7019 ft | 253 kts | 254° |
| 2026-05-03 20:56 | 51.63828 | 0.13635 | 6712 ft | 239 kts | 228° |
| 2026-05-03 20:57 | 51.62732 | 0.11620 | 6475 ft | 243 kts | 229° |
| 2026-05-03 20:57 | 51.61641 | 0.09541 | 6220 ft | 243 kts | 229° |
| 2026-05-03 20:57 | 51.60574 | 0.07503 | 6007 ft | 235 kts | 229° |
| 2026-05-03 20:57 | 51.59539 | 0.05530 | 5762 ft | 233 kts | 229° |
| 2026-05-03 20:58 | 51.58959 | 0.04426 | 5650 ft | 232 kts | 229° |
| 2026-05-03 20:58 | 51.58679 | 0.03893 | 5617 ft | 232 kts | 229° |
| 2026-05-03 20:58 | 51.58105 | 0.02801 | 5483 ft | 231 kts | 229° |
| 2026-05-03 20:58 | 51.57874 | 0.02362 | 5439 ft | 231 kts | 229° |
| 2026-05-03 20:59 | 51.57176 | 0.01036 | 5345 ft | 224 kts | 229° |
| 2026-05-03 20:59 | 51.56205 | -0.00810 | 4956 ft | 212 kts | 229° |
| 2026-05-03 20:59 | 51.55260 | -0.02604 | 4402 ft | 206 kts | 229° |
| 2026-05-03 20:59 | 51.54355 | -0.04320 | 3965 ft | 196 kts | 229° |
| 2026-05-03 21:00 | 51.53500 | -0.05941 | 3689 ft | 191 kts | 229° |
| 2026-05-03 21:00 | 51.52923 | -0.07036 | 3732 ft | 202 kts | 229° |
| 2026-05-03 21:00 | 51.51599 | -0.09541 | 3769 ft | 228 kts | 229° |
| 2026-05-03 21:00 | 51.51409 | -0.09900 | 3769 ft | 228 kts | 229° |
| 2026-05-03 21:01 | 51.51243 | -0.10214 | 3767 ft | 227 kts | 229° |
| 2026-05-03 21:01 | 51.50240 | -0.12109 | 3562 ft | 218 kts | 229° |
| 2026-05-03 21:01 | 51.49284 | -0.13913 | 3321 ft | 206 kts | 229° |
| 2026-05-03 21:02 | 51.48388 | -0.15606 | 3097 ft | 193 kts | 231° |
| 2026-05-03 21:02 | 51.47855 | -0.17440 | 2917 ft | 173 kts | 266° |
| 2026-05-03 21:02 | 51.47873 | -0.19350 | 2828 ft | 177 kts | 270° |
| 2026-05-03 21:02 | 51.47860 | -0.21351 | 2680 ft | 180 kts | 269° |
| 2026-05-03 21:03 | 51.47868 | -0.23332 | 2540 ft | 177 kts | 272° |
| 2026-05-03 21:03 | 51.47893 | -0.25283 | 2301 ft | 172 kts | 270° |
| 2026-05-03 21:03 | 51.47890 | -0.27192 | 2080 ft | 171 kts | 269° |
| 2026-05-03 21:03 | 51.47879 | -0.29101 | 1855 ft | 171 kts | 269° |
| 2026-05-03 21:04 | 51.47868 | -0.30777 | 1640 ft | 160 kts | 269° |
| 2026-05-03 21:04 | 51.47862 | -0.31765 | 1496 ft | 151 kts | 269° |
| 2026-05-03 21:04 | 51.47846 | -0.33371 | 1284 ft | 139 kts | 268° |
| 2026-05-03 21:04 | 51.47809 | -0.34918 | 1047 ft | 138 kts | 268° |
| 2026-05-03 21:05 | 51.47792 | -0.36458 | 910 ft | 138 kts | 269° |
| 2026-05-03 21:05 | 51.47785 | -0.38016 | 740 ft | 142 kts | 269° |
| 2026-05-03 21:05 | 51.47771 | -0.39599 | 590 ft | 142 kts | 269° |
| 2026-05-03 21:05 | 51.47771 | -0.41178 | 372 ft | 139 kts | 270° |
| 2026-05-03 21:06 | 51.47768 | -0.42688 | 217 ft | 135 kts | 270° |
| 2026-05-03 21:06 | 51.47765 | -0.44219 | 99 ft | 134 kts | 270° |
| 2026-05-03 21:06 | 51.47760 | -0.45520 | 95 ft | 92 kts | 270° |
| 2026-05-03 21:06 | 51.47759 | -0.46291 | 99 ft | 44 kts | 269° |
| 2026-05-03 21:07 | 51.47719 | -0.46658 | 101 ft | 28 kts | 248° |
| 2026-05-03 21:07 | 51.47657 | -0.46841 | 103 ft | 13 kts | 227° |